Station: Cunderdin Airport

  Atmospheric Gas Attenuation - ITU Rec 676-11   --------------- db/100km ---------------
Date Time Temp RH % AH g/m3 Dew Point Wind Direction Speed kph Gust kph Barometer mB Rainfall Since 9am 24GHz 47GHz 76GHz 122GHz 134GHz 241GHz
04 04:20 8.1 100 8.32 8.1 9 11 1007.1 2.6 19.3 26.9 41.3 108.5 101.5 348.5
04 04:10 8.2 100 8.38 8.2 13 15 1006.8 2.6 19.4 27.0 41.5 109.0 102.2 351.0
04 04:00 8.2 100 8.38 8.2 13 19 1006.9 2.6 19.4 27.0 41.5 109.0 102.2 351.0
04 03:40 8.3 100 8.43 8.3 15 17 1006.7 2.4 19.5 27.0 41.6 109.4 102.7 352.9
04 03:30 8.3 100 8.43 8.3 17 22 1006.8 2.4 19.5 27.0 41.6 109.4 102.7 353.0
04 03:20 8.4 100 8.49 8.4 15 19 1006.6 2.4 19.6 27.1 41.8 109.9 103.4 355.4
04 03:10 8.4 100 8.49 8.4 13 15 1006.6 2.4 19.6 27.1 41.8 109.9 103.4 355.4
04 03:00 8.4 99 8.4 8.3 13 17 1006.7 2.4 19.4 26.9 41.5 108.9 102.2 351.0
04 02:50 8.3 99 8.35 8.2 13 17 1006.6 2.4 19.3 26.9 41.3 108.5 101.6 349.0
04 02:40 8.2 99 8.29 8.1 13 15 1006.7 2.4 19.2 26.8 41.1 107.9 100.9 346.5
04 02:30 8.2 99 8.29 8.1 13 17 1006.6 2.4 19.2 26.8 41.1 107.9 100.9 346.5
04 02:20 8.3 99 8.35 8.2 13 15 1006.6 2.4 19.3 26.9 41.3 108.5 101.6 349.0
04 02:10 8.4 98 8.32 8.1 11 13 1006.7 2.4 19.3 26.8 41.1 108.0 101.0 347.1
04 02:00 8.4 98 8.32 8.1 17 22 1006.8 2.2 19.3 26.8 41.1 108.0 101.0 347.1
04 01:50 8.5 98 8.37 8.2 15 17 1006.9 2.2 19.4 26.8 41.3 108.5 101.6 349.1
04 01:30 8.6 98 8.42 8.3 13 20 1006.8 2.2 19.5 26.9 41.4 108.9 102.2 351.1
04 01:20 8.6 98 8.42 8.3 13 17 1006.9 2.2 19.5 26.9 41.4 108.9 102.2 351.1
04 01:10 8.7 98 8.48 8.4 11 13 1006.9 2.2 19.6 27.0 41.6 109.4 102.9 353.6
04 01:00 8.8 98 8.53 8.5 13 19 1006.9 2.2 19.7 27.0 41.8 109.9 103.5 355.6
04 00:50 8.8 98 8.53 8.5 13 15 1006.9 2.2 19.7 27.0 41.8 109.9 103.5 355.6
04 00:40 8.8 98 8.53 8.5 11 13 1006.9 2.2 19.7 27.0 41.8 109.9 103.5 355.6
04 00:30 8.7 98 8.48 8.4 13 17 1007 2.2 19.6 27.0 41.6 109.4 102.9 353.7
04 00:20 8.6 98 8.42 8.3 15 19 1007 2.2 19.5 26.9 41.4 108.9 102.2 351.2
04 00:10 8.5 98 8.37 8.2 11 15 1007 2.2 19.4 26.9 41.3 108.5 101.6 349.2
04 00:00 8.6 98 8.42 8.3 13 19 1007.1 2.2 19.5 26.9 41.5 108.9 102.2 351.2
03 23:50 8.7 98 8.48 8.4 15 17 1007.2 2.2 19.6 27.0 41.7 109.5 102.9 353.7
03 23:40 8.7 98 8.48 8.4 13 17 1007.3 2.2 19.6 27.0 41.7 109.5 102.9 353.8
03 23:30 8.7 98 8.48 8.4 15 22 1007.4 2.2 19.6 27.0 41.7 109.5 102.9 353.8
03 23:20 8.7 98 8.48 8.4 13 17 1007.3 2.2 19.6 27.0 41.7 109.5 102.9 353.8
03 23:10 8.7 98 8.48 8.4 15 17 1007.4 2.2 19.6 27.0 41.7 109.5 102.9 353.8
03 23:00 8.7 98 8.48 8.4 13 19 1007.7 2.2 19.6 27.0 41.7 109.5 103.0 353.9
03 22:50 8.8 98 8.53 8.5 13 15 1007.8 2.2 19.7 27.1 41.8 110.0 103.5 355.9
03 22:40 8.8 97 8.45 8.4 11 13 1007.8 2.2 19.5 26.9 41.5 109.0 102.4 352.0
03 22:30 8.8 97 8.45 8.4 9 13 1008 2 19.5 26.9 41.5 109.1 102.4 352.0
03 22:20 8.9 96 8.41 8.3 7 9 1007.9 1.8 19.4 26.8 41.3 108.5 101.7 349.6
03 22:10 8.8 96 8.36 8.2 11 11 1008 1.8 19.3 26.8 41.1 108.0 101.2 347.6
03 22:00 8.8 95 8.27 8 13 20 1008.2 1.8 19.1 26.6 40.8 107.0 99.9 343.3
03 21:50 8.8 95 8.27 8 11 13 1008.2 1.2 19.1 26.6 40.8 107.0 99.9 343.3
03 21:40 8.8 94 8.18 7.9 11 13 1008.3 1 18.9 26.5 40.4 106.0 98.7 338.9
03 21:30 8.7 94 8.13 7.8 9 13 1008.5 0.8 18.8 26.4 40.2 105.6 98.1 337.0
03 21:20 8.9 93 8.15 7.8 13 13 1008.4 0.8 18.9 26.4 40.2 105.6 98.2 337.1
03 21:10 8.9 92 8.06 7.7 9 11 1008.5 0.6 18.7 26.3 39.8 104.6 96.9 332.7
03 21:00 9.1 90 7.99 7.5 13 19 1008.6 0.4 18.5 26.1 39.4 103.5 95.7 328.5
03 20:50 9.2 88 7.86 7.3 15 17 1008.5 0 18.2 25.8 38.9 102.0 93.8 321.8
03 20:40 9.6 83 7.61 6.9 13 13 1008.6 0 17.7 25.3 37.6 98.7 89.9 308.4
03 20:30 9.9 79 7.38 6.4 9 13 1008.6 0 17.2 24.9 36.6 95.8 86.5 296.5
03 20:20 10.1 76 7.19 6.1 11 13 1008.5 0 16.7 24.5 35.7 93.6 83.8 286.9
03 20:10 10.1 76 7.19 6.1 11 13 1008.6 0 16.7 24.5 35.7 93.6 83.8 287.0
03 20:00 10 77 7.24 6.2 13 19 1008.6 0 16.9 24.6 36.0 94.2 84.6 289.6
03 19:50 9.9 77 7.19 6.1 17 17 1008.5 0 16.7 24.5 35.8 93.8 84.0 287.7
03 19:40 9.8 78 7.24 6.2 13 17 1008.5 0 16.9 24.7 36.0 94.4 84.8 290.3
03 19:30 9.7 78 7.19 6.1 17 20 1008.4 0 16.8 24.6 35.9 94.0 84.2 288.4
03 19:20 9.6 80 7.33 6.3 17 20 1008.3 0 17.1 24.8 36.5 95.6 86.2 295.2
03 19:10 9.4 81 7.33 6.3 15 17 1008.3 0 17.1 24.9 36.6 95.9 86.4 296.0
03 19:00 9.6 80 7.33 6.3 15 19 1008.3 0 17.1 24.8 36.5 95.6 86.2 295.2
03 18:50 9.5 81 7.38 6.4 15 15 1008.1 0 17.2 24.9 36.7 96.3 86.9 297.9
03 18:40 9.5 81 7.38 6.4 15 17 1008.1 0 17.2 24.9 36.7 96.3 86.9 297.9
03 18:30 9.8 79 7.33 6.3 19 26 1008.1 0 17.1 24.8 36.4 95.4 85.9 294.4
03 18:20 10 80 7.52 6.7 20 24 1008 0 17.5 25.0 37.1 97.2 88.2 302.5
03 18:10 10.2 77 7.33 6.4 19 22 1007.9 0 17.0 24.7 36.2 94.9 85.5 292.9
03 18:00 10.3 75 7.18 6.1 26 37 1008.1 0 16.7 24.4 35.6 93.2 83.4 285.7
03 17:50 10.1 76 7.19 6.1 24 28 1008 0 16.7 24.5 35.7 93.5 83.8 286.8
03 17:40 10.4 73 7.04 5.8 26 32 1008 0 16.4 24.1 35.0 91.6 81.5 278.9
03 17:30 10.8 72 7.12 6 26 35 1008.1 0 16.6 24.2 35.1 92.0 82.1 281.1
03 17:20 11.2 68 6.89 5.5 22 24 1007.9 0 16.1 23.7 34.0 89.1 78.7 269.3
03 17:10 11.8 63 6.63 5 32 33 1008 0 15.5 23.1 32.8 85.8 74.9 255.8
03 17:00 11.9 64 6.78 5.3 19 22 1008 0 15.8 23.3 33.3 87.2 76.6 262.1
03 16:50 12 62 6.61 5 17 20 1007.9 0 15.4 23.1 32.6 85.3 74.4 254.3
03 16:40 12 62 6.61 5 17 19 1007.9 0 15.4 23.1 32.6 85.3 74.4 254.3
03 16:30 12 61 6.5 4.7 17 20 1007.9 0 15.2 22.9 32.2 84.2 73.0 249.5
03 16:20 12.3 60 6.52 4.8 17 19 1007.7 0 15.2 22.8 32.2 84.1 73.0 249.3
03 16:10 12.5 58 6.38 4.5 22 26 1007.7 0 14.9 22.6 31.5 82.5 71.1 242.7
03 16:00 12.8 55 6.16 4 17 26 1007.8 0 14.4 22.2 30.6 80.0 68.1 232.4
03 15:50 13.2 56 6.43 4.6 20 22 1007.9 0 15.0 22.5 31.5 82.3 71.1 242.7
03 15:40 12.7 57 6.35 4.4 22 26 1007.8 0 14.8 22.5 31.4 82.0 70.5 240.8
03 15:30 13.3 55 6.35 4.5 26 33 1007.9 0 14.8 22.3 31.1 81.4 70.0 239.0
03 15:20 13.7 54 6.39 4.6 28 32 1007.9 0 14.9 22.3 31.1 81.4 70.1 239.5
03 15:10 14.1 54 6.55 4.9 26 30 1007.8 0 15.2 22.4 31.6 82.5 71.7 245.1
03 15:00 14.4 54 6.68 5.2 28 35 1008.1 0 15.5 22.6 31.9 83.5 73.0 249.8
03 14:50 14 53 6.39 4.6 30 33 1008.1 0 14.9 22.2 31.0 81.1 69.9 238.7
03 14:40 13.9 53 6.35 4.5 26 32 1008.1 0 14.8 22.2 30.9 80.8 69.5 237.3
03 14:30 14.1 55 6.68 5.2 28 39 1008.3 0 15.5 22.6 32.1 83.8 73.3 250.8
03 14:20 14.4 53 6.55 5 24 28 1008.3 0 15.2 22.4 31.5 82.3 71.5 244.3
03 14:10 14.6 56 7.01 5.9 17 20 1008.4 0 16.2 23.0 33.1 86.6 76.9 263.3
03 14:00 14 60 7.24 6.4 15 26 1008.5 0 16.7 23.5 34.2 89.6 80.3 275.3
03 13:50 13.4 60 6.98 5.8 15 19 1008.6 0 16.2 23.3 33.5 87.6 77.7 266.0
03 13:40 12.5 69 7.59 7 19 22 1008.8 0 17.5 24.5 36.2 94.9 86.4 296.4
03 13:30 11.2 69 7 5.7 28 35 1009.1 0 16.3 23.9 34.5 90.3 80.2 274.5
03 13:20 11.3 70 7.14 6 26 30 1009 0 16.6 24.1 35.0 91.7 81.9 280.5
03 13:10 13.5 60 7.02 5.9 17 20 1008.9 0 16.2 23.3 33.6 87.9 78.1 267.5
03 13:00 14.3 58 7.13 6.2 15 20 1009.1 0 16.4 23.3 33.7 88.2 78.7 269.7
03 12:50 13.9 58 6.95 5.8 17 20 1009.2 0 16.1 23.1 33.2 86.8 76.9 263.2
03 12:40 14 59 7.12 6.1 15 19 1009.4 0 16.4 23.4 33.8 88.4 78.9 270.3
03 12:30 12.7 63 7.01 5.8 20 26 1009.7 0 16.2 23.6 33.9 88.8 78.9 270.0
03 12:20 13.2 59 6.77 5.4 20 24 1009.7 0 15.7 23.1 32.8 85.8 75.4 257.8
03 12:10 13.1 62 7.08 6 17 20 1009.9 0 16.4 23.6 34.0 89.1 79.4 271.7
03 12:00 13.3 66 7.63 7.1 19 22 1010 0 17.5 24.4 36.1 94.5 86.1 295.5
03 11:50 12.8 68 7.62 7 19 19 1010.1 0 17.5 24.5 36.3 95.0 86.6 296.9
03 11:40 12.8 66 7.39 6.6 20 26 1010.2 0 17.1 24.1 35.4 92.6 83.6 286.6
03 11:30 12.2 71 7.66 7.1 20 28 1010.4 0 17.7 24.7 36.7 96.2 87.8 301.1

Last Refresh: 04-Aug-2020 06:06:01

Most of the information presented on this site is sourced from the Bureau of Meteorology.  Copyright in all material sourced from the Bureau of Meteorology resides with the Commonwealth of Australia.